createdAt,value
2022-08-28T00:00:55.301Z,68.28
2022-08-28T00:02:54.177Z,68.46
2022-08-28T00:04:52.589Z,68.59
2022-08-28T00:06:50.998Z,68.95
2022-08-28T00:08:49.491Z,69.11
2022-08-28T00:10:48.478Z,69.06
2022-08-28T00:12:49.541Z,69.23
2022-08-28T00:14:47.775Z,69.45
2022-08-28T00:16:46.126Z,69.57
2022-08-28T00:18:44.584Z,69.55
2022-08-28T00:20:46.513Z,69.56
2022-08-28T00:22:44.927Z,69.70
2022-08-28T00:24:44.743Z,69.63
2022-08-28T00:27:00.811Z,69.97
2022-08-28T00:29:00.508Z,70.21
2022-08-28T00:31:00.160Z,70.31
2022-08-28T00:33:01.266Z,70.23
2022-08-28T00:35:01.722Z,70.33
2022-08-28T00:37:00.263Z,70.17
2022-08-28T00:39:00.231Z,69.91
2022-08-28T00:41:03.957Z,68.31
2022-08-28T00:43:05.308Z,68.22
2022-08-28T00:45:06.010Z,68.27
2022-08-28T00:47:05.208Z,68.92
2022-08-28T00:49:03.427Z,68.36
2022-08-28T00:51:20.944Z,68.99
2022-08-28T00:53:20.987Z,69.40
2022-08-28T00:55:26.470Z,69.28
2022-08-28T00:57:28.574Z,69.52
2022-08-28T00:59:27.883Z,70.22
2022-08-28T01:01:27.602Z,70.84
2022-08-28T01:03:26.502Z,70.99
2022-08-28T01:05:25.147Z,70.93
2022-08-28T01:07:24.030Z,71.38
2022-08-28T01:09:23.100Z,71.39
2022-08-28T01:11:22.285Z,71.61
2022-08-28T01:13:21.634Z,71.51
2022-08-28T01:15:25.495Z,71.49
2022-08-28T01:17:27.011Z,71.11
2022-08-28T01:19:31.315Z,71.50
2022-08-28T01:21:34.090Z,71.52
2022-08-28T01:23:47.244Z,71.78
2022-08-28T01:25:45.889Z,72.25
2022-08-28T01:27:44.428Z,71.93
2022-08-28T01:29:42.721Z,71.76
2022-08-28T01:31:47.020Z,71.45
2022-08-28T01:33:46.795Z,71.64
2022-08-28T01:35:48.802Z,71.89
2022-08-28T01:37:47.870Z,72.01
2022-08-28T01:39:47.609Z,71.86
2022-08-28T01:41:49.017Z,72.00
2022-08-28T01:43:47.367Z,72.43
2022-08-28T01:45:48.625Z,72.41
2022-08-28T01:47:47.485Z,72.60
2022-08-28T01:49:45.844Z,72.83
2022-08-28T01:51:44.931Z,73.10
2022-08-28T01:53:45.105Z,72.77
2022-08-28T01:55:47.007Z,72.93
2022-08-28T01:57:46.655Z,73.53
2022-08-28T01:59:44.871Z,73.69
2022-08-28T02:01:43.910Z,73.84
2022-08-28T02:03:43.351Z,74.04
2022-08-28T02:05:43.135Z,74.41
2022-08-28T02:07:41.762Z,74.00
2022-08-28T02:09:40.100Z,73.84
2022-08-28T02:11:46.432Z,73.60
2022-08-28T02:13:45.254Z,73.36
2022-08-28T02:15:44.121Z,73.34
2022-08-28T02:17:42.358Z,73.30
2022-08-28T02:19:40.699Z,73.38
2022-08-28T02:21:39.220Z,73.80
2022-08-28T02:23:39.520Z,73.93
2022-08-28T02:25:38.173Z,73.74
2022-08-28T02:27:38.079Z,73.79
2022-08-28T02:29:36.331Z,73.68
2022-08-28T02:31:34.585Z,73.18
2022-08-28T02:33:33.749Z,73.03
2022-08-28T02:35:32.337Z,73.52
2022-08-28T02:37:30.692Z,73.45
2022-08-28T02:39:30.790Z,72.88
2022-08-28T02:41:29.129Z,72.61
2022-08-28T02:43:29.036Z,72.87
2022-08-28T02:45:27.484Z,71.85
2022-08-28T02:47:26.113Z,72.12
2022-08-28T02:49:24.892Z,72.15
2022-08-28T02:51:27.409Z,71.98
2022-08-28T02:53:25.751Z,71.95
2022-08-28T02:55:24.744Z,72.57
2022-08-28T02:57:23.049Z,72.67
2022-08-28T02:59:23.035Z,73.00
2022-08-28T03:01:21.415Z,73.35
2022-08-28T03:03:20.431Z,73.99
2022-08-28T03:05:22.278Z,73.99
2022-08-28T03:07:22.799Z,74.44
2022-08-28T03:09:21.059Z,74.41
2022-08-28T03:11:19.686Z,74.84
2022-08-28T03:13:22.937Z,75.38
2022-08-28T03:15:26.720Z,75.04
2022-08-28T03:17:25.029Z,75.08
2022-08-28T03:19:24.608Z,75.47
2022-08-28T03:21:24.479Z,76.11
2022-08-28T03:23:28.374Z,76.38
2022-08-28T03:25:27.971Z,76.35
2022-08-28T03:27:26.296Z,76.40
2022-08-28T03:29:24.586Z,76.24
2022-08-28T03:31:26.487Z,76.19
2022-08-28T03:33:24.873Z,76.41
2022-08-28T03:35:23.461Z,76.17
2022-08-28T03:37:21.979Z,75.87
2022-08-28T03:39:20.237Z,75.61
2022-08-28T03:41:21.515Z,76.01
2022-08-28T03:43:23.219Z,76.38
2022-08-28T03:45:21.477Z,76.90
2022-08-28T03:47:22.711Z,76.82
2022-08-28T03:49:21.303Z,77.03
2022-08-28T03:51:23.387Z,77.62
2022-08-28T03:53:30.795Z,77.21
2022-08-28T03:55:29.056Z,77.20
2022-08-28T03:57:27.476Z,76.05
2022-08-28T03:59:26.725Z,75.50
2022-08-28T04:01:30.767Z,75.23
2022-08-28T04:03:30.588Z,75.23
2022-08-28T04:05:29.722Z,74.63
2022-08-28T04:07:27.934Z,74.24
2022-08-28T04:09:26.102Z,73.73
2022-08-28T04:11:24.471Z,73.47
2022-08-28T04:13:23.817Z,73.12
2022-08-28T04:15:22.006Z,72.66
2022-08-28T04:17:20.378Z,72.18
2022-08-28T04:19:20.108Z,71.70
2022-08-28T04:21:21.215Z,70.86
2022-08-28T04:23:21.095Z,70.22
2022-08-28T04:25:19.752Z,68.67
2022-08-28T04:27:18.045Z,67.92
2022-08-28T04:29:16.372Z,66.41
2022-08-28T04:31:15.028Z,65.93
2022-08-28T04:33:13.425Z,65.59
2022-08-28T04:35:14.972Z,65.08
2022-08-28T04:37:13.464Z,63.60
2022-08-28T04:39:11.943Z,62.86
2022-08-28T04:41:14.074Z,60.85
2022-08-28T04:43:12.237Z,60.02
2022-08-28T04:45:11.296Z,59.27
2022-08-28T04:47:09.599Z,58.42
2022-08-28T04:49:07.916Z,56.82
2022-08-28T04:51:09.759Z,55.97
2022-08-28T04:53:08.064Z,56.61
2022-08-28T04:55:07.233Z,54.60
2022-08-28T04:57:06.591Z,53.95
2022-08-28T04:59:05.537Z,52.95
2022-08-28T05:01:07.837Z,52.11
2022-08-28T05:03:06.443Z,51.27
2022-08-28T05:05:05.167Z,52.48
2022-08-28T05:07:05.010Z,52.69
2022-08-28T05:09:05.302Z,52.01
2022-08-28T05:11:11.788Z,50.95
2022-08-28T05:13:10.956Z,50.05
2022-08-28T05:15:10.609Z,50.00
2022-08-28T05:17:09.443Z,51.07
2022-08-28T05:19:07.878Z,51.61
2022-08-28T05:21:06.241Z,51.86
2022-08-28T05:23:07.603Z,52.74
2022-08-28T05:25:06.700Z,53.41
2022-08-28T05:27:05.364Z,53.03
2022-08-28T05:29:04.026Z,53.17
2022-08-28T05:31:10.796Z,54.25
2022-08-28T05:33:10.617Z,55.29
2022-08-28T05:35:09.363Z,54.56
2022-08-28T05:37:09.036Z,54.44
2022-08-28T05:39:11.134Z,54.98
2022-08-28T05:41:10.006Z,55.18
2022-08-28T05:43:08.288Z,54.96
2022-08-28T05:45:08.199Z,55.69
2022-08-28T05:47:06.681Z,55.21
2022-08-28T05:49:09.814Z,56.29
2022-08-28T05:51:09.750Z,57.19
2022-08-28T05:53:08.135Z,57.52
2022-08-28T05:55:09.138Z,57.35
2022-08-28T05:57:07.464Z,57.31
2022-08-28T05:59:07.109Z,56.02
2022-08-28T06:01:11.737Z,55.32
2022-08-28T06:03:10.177Z,53.86
2022-08-28T06:05:09.408Z,52.19
2022-08-28T06:07:12.353Z,51.72
2022-08-28T06:09:13.988Z,51.68
2022-08-28T06:11:13.720Z,52.88
2022-08-28T06:13:13.638Z,51.51
2022-08-28T06:15:12.442Z,50.51
2022-08-28T06:17:10.626Z,50.69
2022-08-28T06:19:10.874Z,50.49
2022-08-28T06:21:09.598Z,50.60
2022-08-28T06:23:07.951Z,49.70
2022-08-28T06:25:08.194Z,49.56
2022-08-28T06:27:08.187Z,50.23
2022-08-28T06:29:08.369Z,50.30
2022-08-28T06:31:27.150Z,50.17
2022-08-28T06:33:26.092Z,50.31
2022-08-28T06:35:24.550Z,50.05
2022-08-28T06:37:22.787Z,49.85
2022-08-28T06:39:21.152Z,51.50
2022-08-28T06:41:19.728Z,51.12
2022-08-28T06:43:20.781Z,50.57
2022-08-28T06:45:19.319Z,51.07
2022-08-28T06:47:17.537Z,51.27
2022-08-28T06:49:15.975Z,51.95
2022-08-28T06:51:15.166Z,51.28
2022-08-28T06:53:16.468Z,50.69
2022-08-28T06:55:14.619Z,50.37
2022-08-28T06:57:13.755Z,48.85
2022-08-28T06:59:13.353Z,48.80
2022-08-28T07:01:14.021Z,47.95
2022-08-28T07:03:13.721Z,46.76
2022-08-28T07:05:15.841Z,46.83
2022-08-28T07:07:31.298Z,46.95
2022-08-28T07:09:30.960Z,47.42
2022-08-28T07:11:32.342Z,46.42
2022-08-28T07:13:33.758Z,46.86
2022-08-28T07:15:33.746Z,47.92
2022-08-28T07:17:32.182Z,47.27
2022-08-28T07:19:30.451Z,46.88
2022-08-28T07:21:28.695Z,46.05
2022-08-28T07:23:27.525Z,46.56
2022-08-28T07:25:26.464Z,47.65
2022-08-28T07:27:25.673Z,47.02
2022-08-28T07:29:23.863Z,46.76
2022-08-28T07:31:27.570Z,47.26
2022-08-28T07:33:26.767Z,46.13
2022-08-28T07:35:25.071Z,46.26
2022-08-28T07:37:23.315Z,45.98
2022-08-28T07:39:22.141Z,48.22
2022-08-28T07:41:23.577Z,47.09
2022-08-28T07:43:39.030Z,45.58
2022-08-28T07:45:37.467Z,45.75
2022-08-28T07:47:38.740Z,46.34
2022-08-28T07:49:36.947Z,44.89
2022-08-28T07:51:35.397Z,41.20
2022-08-28T07:53:36.540Z,40.48
2022-08-28T07:55:35.123Z,40.65
2022-08-28T07:57:33.428Z,42.25
2022-08-28T07:59:36.758Z,40.73
2022-08-28T08:01:39.387Z,40.16
2022-08-28T08:03:39.458Z,41.69
2022-08-28T08:05:37.938Z,41.49
2022-08-28T08:07:38.469Z,39.59
2022-08-28T08:09:42.178Z,39.75
2022-08-28T08:11:41.218Z,39.17
2022-08-28T08:13:40.652Z,39.50
2022-08-28T08:15:38.968Z,40.20
2022-08-28T08:17:37.198Z,40.05
2022-08-28T08:19:37.105Z,40.88
2022-08-28T08:21:35.503Z,40.53
2022-08-28T08:23:34.960Z,39.96
2022-08-28T08:25:33.576Z,39.82
2022-08-28T08:27:32.321Z,40.19
2022-08-28T08:29:32.818Z,38.90
2022-08-28T08:31:33.253Z,37.18
2022-08-28T08:33:33.579Z,35.13
2022-08-28T08:35:33.225Z,35.78
2022-08-28T08:37:31.460Z,36.32
2022-08-28T08:39:31.851Z,35.39
2022-08-28T08:41:34.089Z,32.43
2022-08-28T08:43:43.171Z,32.32
2022-08-28T08:45:43.248Z,31.83
2022-08-28T08:47:48.482Z,32.99
2022-08-28T08:49:53.003Z,31.21
2022-08-28T08:52:01.222Z,31.80
2022-08-28T08:54:05.369Z,32.18
2022-08-28T08:56:06.352Z,31.46
2022-08-28T08:58:09.168Z,31.16
2022-08-28T09:00:15.043Z,30.36
2022-08-28T09:02:18.227Z,31.00
2022-08-28T09:04:27.072Z,30.31
2022-08-28T09:06:36.906Z,27.58
2022-08-28T09:08:42.578Z,26.02
2022-08-28T09:10:49.367Z,26.35
2022-08-28T09:12:54.995Z,28.83
2022-08-28T09:15:04.959Z,29.43
2022-08-28T09:17:05.446Z,27.52
2022-08-28T09:19:04.307Z,27.14
2022-08-28T09:21:02.830Z,27.74
2022-08-28T09:23:02.129Z,28.48
2022-08-28T09:25:15.169Z,27.07
2022-08-28T09:27:22.987Z,24.93
2022-08-28T09:29:27.890Z,24.25
2022-08-28T09:31:32.781Z,24.76
2022-08-28T09:33:40.160Z,25.04
2022-08-28T09:35:40.031Z,25.25
2022-08-28T09:37:41.630Z,23.59
2022-08-28T09:39:40.685Z,23.71
2022-08-28T09:42:10.415Z,26.25
2022-08-28T09:44:08.703Z,24.81
2022-08-28T09:46:22.311Z,25.71
2022-08-28T09:48:23.739Z,24.62
2022-08-28T09:50:31.546Z,25.38
2022-08-28T09:52:29.782Z,23.86
2022-08-28T09:54:33.310Z,24.61
2022-08-28T09:56:33.485Z,24.22
2022-08-28T09:58:36.628Z,23.32
2022-08-28T10:00:40.764Z,25.22
2022-08-28T10:02:46.806Z,24.89
2022-08-28T10:04:59.386Z,23.45
2022-08-28T10:07:02.377Z,24.97
2022-08-28T10:09:13.210Z,24.48
2022-08-28T10:11:20.810Z,23.26
2022-08-28T10:13:24.522Z,23.41
2022-08-28T10:15:30.172Z,23.30
2022-08-28T10:17:41.285Z,21.56
2022-08-28T10:19:48.128Z,21.26
2022-08-28T10:21:52.639Z,21.22
2022-08-28T10:24:24.755Z,20.55
2022-08-28T10:26:39.661Z,21.91
2022-08-28T10:28:52.416Z,21.99
2022-08-28T10:31:02.859Z,21.35
2022-08-28T10:33:27.526Z,21.83
2022-08-28T10:35:34.073Z,21.90
2022-08-28T10:37:44.889Z,23.23
2022-08-28T10:39:50.637Z,24.80
2022-08-28T10:41:52.819Z,25.35
2022-08-28T10:43:53.274Z,27.55
2022-08-28T10:45:54.929Z,27.83
2022-08-28T10:47:57.694Z,27.47
2022-08-28T10:50:02.017Z,28.17
2022-08-28T10:52:06.498Z,29.89
2022-08-28T10:54:09.097Z,29.31
2022-08-28T10:56:14.312Z,29.29
2022-08-28T10:58:23.874Z,30.72
2022-08-28T11:00:26.476Z,30.92
2022-08-28T11:02:28.083Z,30.64
2022-08-28T11:04:29.351Z,30.83
2022-08-28T11:06:33.511Z,29.94
2022-08-28T11:08:34.858Z,30.32
2022-08-28T11:10:46.560Z,30.16
2022-08-28T11:12:45.164Z,29.79
2022-08-28T11:14:47.787Z,29.75
2022-08-28T11:16:50.143Z,29.19
2022-08-28T11:19:29.751Z,28.85
2022-08-28T11:21:33.429Z,28.49
2022-08-28T11:23:39.624Z,28.53
2022-08-28T11:25:49.024Z,29.30
2022-08-28T11:28:14.575Z,29.18
2022-08-28T11:30:33.588Z,29.17
2022-08-28T11:32:56.051Z,28.61
2022-08-28T11:34:57.780Z,28.29
2022-08-28T11:37:04.110Z,28.31
2022-08-28T11:39:06.403Z,28.29
2022-08-28T11:41:15.427Z,28.81
2022-08-28T11:43:34.852Z,28.75
2022-08-28T11:46:05.640Z,28.77
2022-08-28T11:48:05.567Z,28.94
2022-08-28T11:50:15.734Z,29.05
2022-08-28T11:52:40.464Z,28.74
2022-08-28T11:54:52.660Z,28.89
2022-08-28T11:57:04.710Z,29.64
2022-08-28T11:59:18.227Z,29.10
2022-08-28T12:01:28.551Z,29.33
2022-08-28T12:03:32.168Z,28.71
2022-08-28T12:05:45.965Z,28.27
2022-08-28T12:07:47.684Z,27.92
2022-08-28T12:09:47.406Z,28.29
2022-08-28T12:11:57.842Z,28.30
2022-08-28T12:13:56.564Z,28.48
2022-08-28T12:16:05.876Z,28.07
2022-08-28T12:18:06.291Z,28.79
2022-08-28T12:20:09.088Z,28.87
2022-08-28T12:22:11.161Z,28.99
2022-08-28T12:24:22.940Z,29.01
2022-08-28T12:26:25.736Z,28.20
2022-08-28T12:28:28.686Z,28.53
2022-08-28T12:30:34.564Z,26.05
2022-08-28T12:32:39.874Z,24.73
2022-08-28T12:34:45.829Z,25.89
2022-08-28T12:36:44.891Z,26.46
2022-08-28T12:38:52.780Z,25.04
2022-08-28T12:40:53.622Z,25.61
2022-08-28T12:42:55.675Z,25.62
2022-08-28T12:44:54.341Z,25.49
2022-08-28T12:46:53.976Z,26.26
2022-08-28T12:48:54.962Z,25.46
2022-08-28T12:50:59.779Z,26.93
2022-08-28T12:53:03.788Z,27.31
2022-08-28T12:55:01.951Z,27.83
2022-08-28T12:57:03.596Z,27.50
2022-08-28T12:59:27.278Z,27.36
2022-08-28T13:01:28.954Z,28.01
2022-08-28T13:03:27.630Z,27.77
2022-08-28T13:05:32.483Z,27.00
2022-08-28T13:07:33.761Z,27.01
2022-08-28T13:09:32.621Z,26.58
2022-08-28T13:11:34.729Z,27.11
2022-08-28T13:13:38.177Z,26.49
2022-08-28T13:15:47.818Z,25.74
2022-08-28T13:17:49.401Z,24.78
2022-08-28T13:20:03.824Z,24.17
2022-08-28T13:22:04.066Z,24.07
2022-08-28T13:24:21.663Z,24.95
2022-08-28T13:26:26.195Z,24.91
2022-08-28T13:28:25.065Z,24.92
2022-08-28T13:30:27.590Z,24.59
2022-08-28T13:32:27.276Z,24.88
2022-08-28T13:34:27.634Z,24.56
2022-08-28T13:36:27.570Z,25.20
2022-08-28T13:38:26.766Z,24.55
2022-08-28T13:42:46.653Z,24.81
2022-08-28T13:44:49.019Z,24.22
2022-08-28T13:46:48.723Z,24.69
2022-08-28T13:48:46.907Z,24.07
2022-08-28T13:50:47.771Z,23.93
2022-08-28T13:52:46.867Z,24.05
2022-08-28T13:54:45.472Z,24.89
2022-08-28T13:56:44.079Z,24.71
2022-08-28T13:58:42.383Z,24.63
2022-08-28T14:00:44.487Z,24.85
2022-08-28T14:03:01.257Z,24.83
2022-08-28T14:04:59.716Z,25.20
2022-08-28T14:06:58.156Z,24.47
2022-08-28T14:08:56.260Z,24.53
2022-08-28T14:10:54.518Z,24.82
2022-08-28T14:12:52.920Z,25.06
2022-08-28T14:14:52.676Z,24.25
2022-08-28T14:16:53.543Z,24.34
2022-08-28T14:18:53.922Z,24.29
2022-08-28T14:20:52.308Z,23.77
2022-08-28T14:22:50.525Z,24.03
2022-08-28T14:24:48.963Z,23.88
2022-08-28T14:26:47.671Z,24.30
2022-08-28T14:28:46.435Z,23.92
2022-08-28T14:30:45.493Z,23.53
2022-08-28T14:32:44.667Z,23.53
2022-08-28T14:34:44.655Z,23.85
2022-08-28T14:36:43.519Z,23.63
2022-08-28T14:38:41.883Z,24.16
2022-08-28T14:40:41.829Z,24.79
2022-08-28T14:42:41.865Z,25.02
2022-08-28T14:44:40.183Z,24.37
2022-08-28T14:46:39.124Z,24.46
2022-08-28T14:48:37.352Z,24.47
2022-08-28T14:50:41.723Z,25.02
2022-08-28T14:52:40.721Z,25.00
2022-08-28T14:54:40.606Z,25.18
2022-08-28T14:56:39.986Z,24.83
2022-08-28T14:58:38.794Z,24.70
2022-08-28T15:00:40.773Z,24.77
2022-08-28T15:02:39.034Z,25.19
2022-08-28T15:04:38.125Z,24.92
2022-08-28T15:06:38.502Z,25.28
2022-08-28T15:08:38.002Z,25.01
2022-08-28T15:10:39.175Z,25.19
2022-08-28T15:12:37.322Z,24.67
2022-08-28T15:14:37.248Z,23.94
2022-08-28T15:16:39.236Z,24.80
2022-08-28T15:18:37.771Z,27.01
2022-08-28T15:20:39.828Z,28.18
2022-08-28T15:22:39.546Z,29.70
2022-08-28T15:24:37.910Z,31.09
2022-08-28T15:26:36.712Z,31.91
2022-08-28T15:28:35.031Z,32.85
2022-08-28T15:30:34.119Z,33.14
2022-08-28T15:32:32.318Z,33.53
2022-08-28T15:34:30.784Z,33.99
2022-08-28T15:36:29.072Z,34.70
2022-08-28T15:38:48.869Z,34.56
2022-08-28T15:41:04.299Z,34.54
2022-08-28T15:43:02.706Z,35.07
2022-08-28T15:45:01.086Z,35.13
2022-08-28T15:47:01.514Z,34.98
2022-08-28T15:48:59.891Z,35.49
2022-08-28T15:50:59.451Z,36.03
2022-08-28T15:52:58.339Z,36.37
2022-08-28T15:54:59.063Z,36.04
2022-08-28T15:56:57.404Z,36.50
2022-08-28T15:58:55.656Z,36.76
2022-08-28T16:00:54.212Z,37.27
2022-08-28T16:02:55.861Z,37.39
2022-08-28T16:04:54.840Z,37.94
2022-08-28T16:07:00.350Z,37.70
2022-08-28T16:08:59.319Z,38.78
2022-08-28T16:10:58.995Z,38.69
2022-08-28T16:12:57.803Z,38.97
2022-08-28T16:14:56.093Z,39.33
2022-08-28T16:16:54.422Z,39.49
2022-08-28T16:18:52.907Z,39.80
2022-08-28T16:20:51.177Z,39.76
2022-08-28T16:22:49.490Z,40.01
2022-08-28T16:24:48.328Z,40.51
2022-08-28T16:26:47.982Z,40.85
2022-08-28T16:28:46.936Z,40.90
2022-08-28T16:30:45.503Z,40.74
2022-08-28T16:32:46.876Z,41.68
2022-08-28T16:34:46.007Z,41.88
2022-08-28T16:36:47.751Z,41.97
2022-08-28T16:38:49.021Z,42.74
2022-08-28T16:40:53.616Z,42.96
2022-08-28T16:42:55.737Z,42.76
2022-08-28T16:44:57.580Z,42.99
2022-08-28T16:46:56.895Z,43.19
2022-08-28T16:48:55.391Z,43.43
2022-08-28T16:50:54.008Z,42.90
2022-08-28T16:52:52.374Z,43.32
2022-08-28T16:54:51.859Z,43.41
2022-08-28T16:56:50.311Z,43.49
2022-08-28T16:58:50.077Z,43.39
2022-08-28T17:00:52.585Z,43.71
2022-08-28T17:02:53.257Z,43.91
2022-08-28T17:04:51.714Z,44.35
2022-08-28T17:06:50.216Z,44.70
2022-08-28T17:08:49.012Z,44.80
2022-08-28T17:10:48.763Z,44.94
2022-08-28T17:12:47.254Z,44.79
2022-08-28T17:14:46.926Z,45.10
2022-08-28T17:16:45.362Z,45.42
2022-08-28T17:18:47.972Z,45.73
2022-08-28T17:21:07.823Z,45.91
2022-08-28T17:23:06.879Z,46.00
2022-08-28T17:25:09.476Z,46.52
2022-08-28T17:27:08.478Z,46.72
2022-08-28T17:29:07.267Z,46.95
2022-08-28T17:31:07.730Z,47.19
2022-08-28T17:33:07.315Z,46.96
2022-08-28T17:35:07.650Z,47.12
2022-08-28T17:37:06.249Z,46.91
2022-08-28T17:39:08.615Z,46.85
2022-08-28T17:41:07.189Z,47.40
2022-08-28T17:43:05.486Z,46.94
2022-08-28T17:45:06.640Z,46.83
2022-08-28T17:47:06.617Z,46.47
2022-08-28T17:49:06.066Z,47.04
2022-08-28T17:51:05.614Z,46.95
2022-08-28T17:53:04.029Z,47.00
2022-08-28T17:55:03.003Z,47.49
2022-08-28T17:57:01.408Z,47.59
2022-08-28T17:58:59.594Z,48.30
2022-08-28T18:00:58.382Z,48.22
2022-08-28T18:02:58.150Z,48.11
2022-08-28T18:04:56.489Z,47.99
2022-08-28T18:06:55.155Z,48.39
2022-08-28T18:08:53.434Z,48.74
2022-08-28T18:10:51.952Z,48.17
2022-08-28T18:12:50.326Z,48.17
2022-08-28T18:14:48.706Z,48.47
2022-08-28T18:16:47.406Z,48.60
2022-08-28T18:18:47.190Z,48.67
2022-08-28T18:20:45.619Z,49.04
2022-08-28T18:22:43.737Z,49.23
2022-08-28T18:24:43.876Z,49.34
2022-08-28T18:26:42.926Z,49.32
2022-08-28T18:28:41.242Z,49.55
2022-08-28T18:30:40.527Z,49.84
2022-08-28T18:32:38.759Z,49.95
2022-08-28T18:34:38.508Z,50.21
2022-08-28T18:36:36.836Z,50.77
2022-08-28T18:38:35.737Z,50.29
2022-08-28T18:40:35.103Z,50.54
2022-08-28T18:42:33.554Z,50.39
2022-08-28T18:44:32.453Z,51.02
2022-08-28T18:46:31.257Z,51.21
2022-08-28T18:48:31.722Z,50.81
2022-08-28T18:50:32.592Z,51.08
2022-08-28T18:52:30.850Z,51.07
2022-08-28T18:54:31.244Z,51.47
2022-08-28T18:56:32.541Z,52.05
2022-08-28T18:58:32.214Z,52.12
2022-08-28T19:00:31.503Z,51.51
2022-08-28T19:02:29.780Z,51.63
2022-08-28T19:04:28.085Z,51.88
2022-08-28T19:06:27.860Z,52.15
2022-08-28T19:08:27.129Z,52.12
2022-08-28T19:10:33.606Z,52.04
2022-08-28T19:12:33.428Z,52.38
2022-08-28T19:14:32.609Z,52.21
2022-08-28T19:16:31.616Z,53.11
2022-08-28T19:18:29.999Z,53.39
2022-08-28T19:20:29.121Z,53.13
2022-08-28T19:22:29.986Z,53.39
2022-08-28T19:24:31.161Z,53.57
2022-08-28T19:26:30.026Z,54.10
2022-08-28T19:28:28.601Z,53.98
2022-08-28T19:30:28.250Z,54.03
2022-08-28T19:32:27.271Z,53.94
2022-08-28T19:34:25.943Z,54.46
2022-08-28T19:36:27.173Z,53.93
2022-08-28T19:38:26.842Z,54.06
2022-08-28T19:40:29.210Z,54.33
2022-08-28T19:42:28.845Z,54.11
2022-08-28T19:44:27.241Z,54.16
2022-08-28T19:46:25.465Z,54.54
2022-08-28T19:48:23.811Z,54.41
2022-08-28T19:50:22.203Z,54.59
2022-08-28T19:52:20.354Z,54.76
2022-08-28T19:54:20.111Z,54.52
2022-08-28T19:56:22.287Z,54.90
2022-08-28T19:58:22.357Z,54.88
2022-08-28T20:00:23.137Z,54.97
2022-08-28T20:02:22.852Z,55.68
2022-08-28T20:04:21.130Z,55.64
2022-08-28T20:06:19.432Z,55.57
2022-08-28T20:08:18.173Z,55.73
2022-08-28T20:10:18.518Z,56.05
2022-08-28T20:12:17.079Z,56.02
2022-08-28T20:14:16.661Z,56.48
2022-08-28T20:18:13.123Z,57.62
2022-08-28T20:20:13.348Z,57.60
2022-08-28T20:22:11.682Z,57.84
2022-08-28T20:24:12.416Z,57.66
2022-08-28T20:26:12.929Z,57.98
2022-08-28T20:28:11.293Z,58.07
2022-08-28T20:30:10.642Z,58.53
2022-08-28T20:32:09.846Z,58.03
2022-08-28T20:34:09.718Z,58.60
2022-08-28T20:36:16.095Z,58.68
2022-08-28T20:38:19.424Z,58.80
2022-08-28T20:40:21.822Z,59.15
2022-08-28T20:42:21.595Z,59.66
2022-08-28T20:44:21.968Z,59.43
2022-08-28T20:46:20.799Z,59.61
2022-08-28T20:48:19.654Z,59.92
2022-08-28T20:50:17.877Z,60.35
2022-08-28T20:52:16.177Z,60.12
2022-08-28T20:54:14.531Z,60.49
2022-08-28T20:56:12.844Z,60.50
2022-08-28T20:58:14.370Z,60.37
2022-08-28T21:00:14.071Z,61.07
2022-08-28T21:02:15.258Z,61.15
2022-08-28T21:04:13.411Z,61.15
2022-08-28T21:06:11.768Z,61.34
2022-08-28T21:08:12.285Z,61.92
2022-08-28T21:10:11.487Z,61.01
2022-08-28T21:12:10.181Z,60.97
2022-08-28T21:14:09.923Z,62.20
2022-08-28T21:16:09.211Z,62.53
2022-08-28T21:18:08.338Z,62.41
2022-08-28T21:20:11.388Z,62.80
2022-08-28T21:22:09.728Z,62.99
2022-08-28T21:24:09.948Z,62.99
2022-08-28T21:26:08.607Z,62.81
2022-08-28T21:28:07.111Z,62.86
2022-08-28T21:30:09.220Z,62.91
2022-08-28T21:32:07.498Z,63.18
2022-08-28T21:34:06.699Z,63.70
2022-08-28T21:36:09.178Z,63.50
2022-08-28T21:38:07.723Z,64.04
2022-08-28T21:40:09.353Z,63.79
2022-08-28T21:42:08.139Z,63.50
2022-08-28T21:44:06.764Z,64.09
2022-08-28T21:46:07.808Z,64.06
2022-08-28T21:48:06.325Z,64.00
2022-08-28T21:50:05.211Z,64.12
2022-08-28T21:52:04.223Z,63.53
2022-08-28T21:54:02.828Z,64.18
2022-08-28T21:56:01.175Z,63.91
2022-08-28T21:57:59.473Z,64.32
2022-08-28T21:59:58.596Z,64.64
2022-08-28T22:02:01.207Z,64.68
2022-08-28T22:03:59.897Z,64.92
2022-08-28T22:05:58.889Z,64.80
2022-08-28T22:07:57.175Z,64.87
2022-08-28T22:09:55.488Z,64.73
2022-08-28T22:11:54.121Z,65.53
2022-08-28T22:13:52.463Z,65.10
2022-08-28T22:15:50.817Z,65.47
2022-08-28T22:17:51.754Z,65.66
2022-08-28T22:19:50.011Z,65.85
2022-08-28T22:22:05.822Z,66.38
2022-08-28T22:24:04.904Z,65.96
2022-08-28T22:26:04.722Z,65.88
2022-08-28T22:28:03.112Z,65.65
2022-08-28T22:30:01.602Z,66.00
2022-08-28T22:32:00.003Z,65.67
2022-08-28T22:34:00.548Z,65.89
2022-08-28T22:35:59.207Z,66.56
2022-08-28T22:38:00.583Z,66.73
2022-08-28T22:39:59.293Z,67.34
2022-08-28T22:41:57.668Z,66.28
2022-08-28T22:43:55.933Z,67.04
2022-08-28T22:45:54.501Z,66.98
2022-08-28T22:47:54.485Z,66.73
2022-08-28T22:49:56.262Z,66.76
2022-08-28T22:51:54.545Z,66.84
2022-08-28T22:53:53.041Z,66.92
2022-08-28T22:55:51.539Z,67.21
2022-08-28T22:57:49.812Z,67.78
2022-08-28T22:59:48.096Z,68.11
2022-08-28T23:01:46.554Z,68.40
2022-08-28T23:03:45.419Z,68.83
2022-08-28T23:05:45.101Z,68.88
2022-08-28T23:07:44.214Z,68.53
2022-08-28T23:09:42.524Z,69.07
2022-08-28T23:11:40.843Z,69.09
2022-08-28T23:13:39.824Z,69.66
2022-08-28T23:15:38.345Z,69.89
2022-08-28T23:17:37.140Z,70.08
2022-08-28T23:19:35.573Z,70.17
2022-08-28T23:21:35.105Z,70.46
2022-08-28T23:23:42.423Z,70.00
2022-08-28T23:25:41.185Z,70.33
2022-08-28T23:27:39.494Z,70.48
2022-08-28T23:29:37.754Z,70.08
2022-08-28T23:31:36.315Z,70.83
2022-08-28T23:33:34.897Z,70.39
2022-08-28T23:35:33.437Z,70.77
2022-08-28T23:37:33.797Z,71.03
2022-08-28T23:39:32.116Z,71.35
2022-08-28T23:41:31.969Z,71.33
2022-08-28T23:43:30.377Z,71.06
2022-08-28T23:45:28.688Z,71.01
2022-08-28T23:47:27.923Z,71.03
2022-08-28T23:49:27.054Z,71.44
2022-08-28T23:51:25.453Z,70.66
2022-08-28T23:53:25.945Z,70.33
2022-08-28T23:55:26.993Z,70.03
2022-08-28T23:57:26.300Z,70.04
2022-08-28T23:59:24.698Z,70.05
